createdAt,value
2019-02-23T00:00:49.566Z,87.75
2019-02-23T00:03:21.351Z,87.53
2019-02-23T00:05:52.905Z,87.27
2019-02-23T00:08:24.714Z,85.98
2019-02-23T00:10:56.381Z,85.36
2019-02-23T00:13:28.428Z,85.36
2019-02-23T00:15:59.784Z,85.41
2019-02-23T00:18:30.873Z,84.42
2019-02-23T00:21:02.569Z,83.34
2019-02-23T00:23:34.008Z,82.30
2019-02-23T00:26:05.537Z,81.06
2019-02-23T00:28:36.792Z,81.06
2019-02-23T00:31:08.217Z,82.22
2019-02-23T00:33:39.883Z,82.22
2019-02-23T00:36:11.295Z,80.72
2019-02-23T00:38:42.772Z,80.72
2019-02-23T00:41:14.034Z,78.76
2019-02-23T00:43:45.759Z,79.72
2019-02-23T00:46:17.320Z,79.67
2019-02-23T00:48:48.781Z,78.57
2019-02-23T00:51:20.378Z,78.82
2019-02-23T00:53:51.754Z,79.36
2019-02-23T00:56:23.127Z,79.36
2019-02-23T00:58:54.572Z,80.47
2019-02-23T01:01:26.021Z,80.82
2019-02-23T01:03:57.986Z,80.82
2019-02-23T01:06:29.744Z,80.82
2019-02-23T01:09:00.972Z,79.07
2019-02-23T01:11:33.851Z,79.07
2019-02-23T01:14:05.342Z,78.96
2019-02-23T01:16:36.887Z,78.16
2019-02-23T01:19:08.145Z,77.82
2019-02-23T01:21:39.708Z,77.47
2019-02-23T01:24:11.365Z,77.22
2019-02-23T01:26:43.017Z,77.03
2019-02-23T01:29:14.625Z,76.02
2019-02-23T01:31:46.128Z,76.15
2019-02-23T01:34:17.522Z,75.41
2019-02-23T01:36:49.061Z,75.79
2019-02-23T01:39:20.655Z,75.96
2019-02-23T01:41:52.156Z,75.33
2019-02-23T01:44:23.669Z,75.33
2019-02-23T01:46:55.319Z,76.65
2019-02-23T01:49:26.957Z,75.85
2019-02-23T01:51:58.256Z,76.17
2019-02-23T01:54:29.800Z,76.92
2019-02-23T01:57:01.230Z,77.85
2019-02-23T01:59:32.459Z,80.84
2019-02-23T02:02:04.043Z,81.70
2019-02-23T02:04:35.437Z,82.04
2019-02-23T02:07:07.011Z,81.73
2019-02-23T02:09:38.272Z,82.44
2019-02-23T02:12:11.224Z,81.58
2019-02-23T02:14:42.567Z,81.01
2019-02-23T02:17:14.053Z,81.57
2019-02-23T02:19:45.331Z,81.09
2019-02-23T02:22:16.629Z,81.18
2019-02-23T02:24:48.171Z,81.52
2019-02-23T02:27:19.629Z,80.91
2019-02-23T02:29:51.077Z,80.83
2019-02-23T02:32:22.277Z,80.04
2019-02-23T02:34:53.764Z,79.84
2019-02-23T02:37:25.274Z,80.01
2019-02-23T02:39:56.789Z,79.70
2019-02-23T02:42:28.232Z,79.43
2019-02-23T02:44:59.731Z,78.78
2019-02-23T02:47:31.242Z,79.10
2019-02-23T02:50:02.702Z,79.73
2019-02-23T02:52:34.278Z,79.37
2019-02-23T02:55:06.412Z,79.37
2019-02-23T02:57:37.946Z,79.74
2019-02-23T03:00:11.858Z,80.48
2019-02-23T03:02:44.390Z,80.04
2019-02-23T03:05:15.382Z,81.03
2019-02-23T03:07:46.695Z,81.00
2019-02-23T03:10:17.906Z,81.00
2019-02-23T03:12:49.319Z,82.17
2019-02-23T03:15:20.390Z,82.67
2019-02-23T03:17:51.891Z,83.48
2019-02-23T03:20:23.077Z,83.66
2019-02-23T03:22:54.624Z,83.02
2019-02-23T03:25:25.914Z,82.16
2019-02-23T03:27:57.187Z,81.82
2019-02-23T03:30:28.505Z,81.42
2019-02-23T03:32:59.726Z,80.40
2019-02-23T03:35:30.620Z,79.37
2019-02-23T03:38:02.127Z,78.54
2019-02-23T03:40:34.138Z,77.87
2019-02-23T03:43:05.581Z,77.64
2019-02-23T03:45:37.977Z,76.99
2019-02-23T03:48:09.463Z,76.48
2019-02-23T03:50:48.656Z,76.24
2019-02-23T03:53:12.437Z,76.67
2019-02-23T03:55:44.804Z,77.43
2019-02-23T03:58:16.232Z,75.96
2019-02-23T04:00:47.609Z,75.96
2019-02-23T04:03:19.038Z,76.35
2019-02-23T04:05:50.554Z,76.28
2019-02-23T04:08:21.759Z,74.72
2019-02-23T04:10:52.977Z,74.18
2019-02-23T04:13:24.501Z,73.51
2019-02-23T04:15:56.079Z,73.22
2019-02-23T04:18:27.803Z,73.63
2019-02-23T04:21:02.079Z,73.76
2019-02-23T04:23:32.499Z,75.17
2019-02-23T04:26:04.016Z,76.79
2019-02-23T04:28:35.379Z,78.01
2019-02-23T04:31:06.769Z,78.98
2019-02-23T04:33:38.181Z,79.25
2019-02-23T04:36:09.413Z,79.74
2019-02-23T04:38:40.826Z,76.20
2019-02-23T04:41:12.837Z,76.46
2019-02-23T04:43:44.336Z,75.48
2019-02-23T04:46:15.845Z,74.98
2019-02-23T04:48:47.343Z,75.01
2019-02-23T04:51:18.640Z,73.41
2019-02-23T04:53:50.157Z,73.09
2019-02-23T04:56:21.346Z,72.62
2019-02-23T04:58:52.654Z,72.36
2019-02-23T05:01:23.850Z,72.22
2019-02-23T05:03:55.298Z,71.78
2019-02-23T05:06:25.127Z,71.46
2019-02-23T05:08:56.205Z,71.53
2019-02-23T05:11:27.960Z,70.97
2019-02-23T05:13:59.408Z,70.76
2019-02-23T05:16:30.922Z,71.12
2019-02-23T05:19:02.423Z,71.28
2019-02-23T05:21:33.527Z,71.62
2019-02-23T05:24:04.730Z,72.08
2019-02-23T05:26:36.011Z,71.83
2019-02-23T05:29:07.253Z,72.14
2019-02-23T05:31:38.490Z,72.25
2019-02-23T05:34:09.702Z,73.07
2019-02-23T05:36:41.305Z,73.07
2019-02-23T05:39:12.831Z,72.68
2019-02-23T05:41:44.162Z,72.94
2019-02-23T05:44:15.552Z,72.62
2019-02-23T05:46:46.852Z,72.95
2019-02-23T05:49:18.107Z,72.54
2019-02-23T05:51:49.522Z,72.60
2019-02-23T05:54:20.952Z,72.89
2019-02-23T05:56:52.419Z,73.60
2019-02-23T05:59:24.028Z,73.86
2019-02-23T06:01:55.625Z,72.81
2019-02-23T06:04:27.042Z,71.95
2019-02-23T06:06:58.276Z,71.05
2019-02-23T06:09:29.786Z,70.83
2019-02-23T06:12:01.337Z,70.43
2019-02-23T06:14:32.695Z,70.16
2019-02-23T06:17:04.412Z,71.04
2019-02-23T06:19:36.152Z,71.09
2019-02-23T06:22:07.614Z,71.49
2019-02-23T06:24:39.541Z,72.41
2019-02-23T06:27:11.203Z,71.56
2019-02-23T06:29:42.971Z,72.09
2019-02-23T06:32:14.336Z,72.11
2019-02-23T06:34:45.235Z,71.30
2019-02-23T06:37:16.658Z,70.70
2019-02-23T06:39:49.054Z,70.70
2019-02-23T06:42:18.854Z,69.97
2019-02-23T06:44:50.023Z,69.66
2019-02-23T06:47:20.949Z,69.15
2019-02-23T06:49:52.742Z,68.66
2019-02-23T06:52:23.780Z,68.82
2019-02-23T06:54:55.427Z,68.29
2019-02-23T06:57:26.842Z,67.98
2019-02-23T06:59:58.081Z,67.07
2019-02-23T07:02:29.521Z,67.49
2019-02-23T07:05:00.793Z,65.90
2019-02-23T07:07:32.196Z,65.42
2019-02-23T07:10:05.140Z,65.40
2019-02-23T07:12:36.792Z,65.62
2019-02-23T07:15:09.423Z,64.96
2019-02-23T07:17:40.677Z,65.56
2019-02-23T07:20:12.307Z,63.01
2019-02-23T07:22:43.623Z,63.37
2019-02-23T07:25:15.130Z,64.10
2019-02-23T07:27:46.358Z,64.94
2019-02-23T07:30:17.654Z,63.65
2019-02-23T07:32:48.867Z,64.65
2019-02-23T07:35:20.270Z,64.51
2019-02-23T07:37:51.687Z,63.80
2019-02-23T07:40:21.617Z,63.57
2019-02-23T07:42:53.034Z,64.38
2019-02-23T07:45:24.443Z,64.35
2019-02-23T07:47:56.709Z,63.24
2019-02-23T07:50:28.316Z,63.35
2019-02-23T07:52:59.943Z,63.40
2019-02-23T07:55:31.575Z,63.59
2019-02-23T07:58:03.050Z,64.44
2019-02-23T08:00:34.635Z,62.59
2019-02-23T08:03:06.079Z,63.52
2019-02-23T08:05:37.523Z,62.17
2019-02-23T08:08:09.077Z,61.94
2019-02-23T08:10:40.701Z,61.08
2019-02-23T08:13:12.151Z,59.88
2019-02-23T08:15:43.602Z,59.88
2019-02-23T08:18:15.102Z,60.49
2019-02-23T08:20:46.714Z,59.55
2019-02-23T08:23:18.080Z,61.13
2019-02-23T08:25:49.849Z,61.75
2019-02-23T08:28:21.581Z,62.09
2019-02-23T08:30:52.928Z,60.71
2019-02-23T08:33:24.181Z,58.44
2019-02-23T08:35:55.822Z,58.25
2019-02-23T08:38:27.332Z,59.15
2019-02-23T08:40:58.928Z,59.15
2019-02-23T08:43:30.570Z,58.63
2019-02-23T08:46:02.104Z,58.67
2019-02-23T08:48:33.696Z,58.22
2019-02-23T08:51:05.329Z,57.42
2019-02-23T08:53:36.792Z,58.00
2019-02-23T08:56:08.480Z,58.00
2019-02-23T08:58:39.702Z,58.25
2019-02-23T09:01:11.023Z,58.52
2019-02-23T09:03:42.549Z,58.08
2019-02-23T09:06:14.133Z,57.66
2019-02-23T09:08:45.703Z,57.68
2019-02-23T09:11:17.320Z,58.39
2019-02-23T09:13:48.895Z,58.87
2019-02-23T09:16:20.480Z,58.30
2019-02-23T09:18:52.052Z,57.75
2019-02-23T09:21:23.578Z,57.23
2019-02-23T09:23:54.875Z,57.67
2019-02-23T09:26:26.410Z,57.67
2019-02-23T09:28:59.235Z,56.85
2019-02-23T09:31:30.751Z,57.44
2019-02-23T09:34:02.191Z,57.44
2019-02-23T09:36:33.503Z,57.65
2019-02-23T09:39:05.160Z,57.39
2019-02-23T09:41:36.961Z,58.34
2019-02-23T09:44:08.271Z,58.19
2019-02-23T09:46:39.857Z,57.18
2019-02-23T09:49:11.298Z,57.18
2019-02-23T09:51:42.978Z,56.87
2019-02-23T09:54:14.186Z,56.87
2019-02-23T09:56:44.030Z,56.88
2019-02-23T09:59:15.389Z,55.84
2019-02-23T10:01:46.674Z,53.79
2019-02-23T10:04:17.945Z,53.43
2019-02-23T10:06:49.470Z,52.98
2019-02-23T10:09:21.400Z,53.02
2019-02-23T10:11:53.135Z,53.02
2019-02-23T10:14:25.041Z,51.92
2019-02-23T10:16:56.372Z,51.92
2019-02-23T10:19:28.169Z,51.84
2019-02-23T10:21:59.402Z,50.80
2019-02-23T10:24:30.631Z,51.18
2019-02-23T10:27:02.272Z,49.91
2019-02-23T10:29:33.825Z,50.46
2019-02-23T10:32:05.283Z,49.90
2019-02-23T10:34:37.062Z,50.75
2019-02-23T10:37:08.557Z,50.35
2019-02-23T10:39:40.161Z,50.17
2019-02-23T10:42:11.500Z,51.34
2019-02-23T10:44:43.580Z,52.19
2019-02-23T10:47:13.846Z,52.41
2019-02-23T10:49:45.475Z,51.98
2019-02-23T10:52:17.169Z,50.71
2019-02-23T10:54:48.907Z,49.91
2019-02-23T10:57:20.422Z,50.10
2019-02-23T10:59:51.765Z,50.70
2019-02-23T11:02:23.451Z,49.26
2019-02-23T11:04:54.906Z,50.07
2019-02-23T11:07:26.578Z,48.73
2019-02-23T11:09:58.137Z,48.05
2019-02-23T11:12:29.349Z,48.71
2019-02-23T11:15:00.931Z,50.37
2019-02-23T11:17:32.577Z,50.58
2019-02-23T11:20:03.766Z,50.57
2019-02-23T11:22:35.249Z,50.57
2019-02-23T11:25:07.455Z,48.74
2019-02-23T11:27:39.178Z,47.64
2019-02-23T11:30:11.925Z,47.43
2019-02-23T11:32:43.316Z,47.38
2019-02-23T11:35:17.123Z,49.57
2019-02-23T11:37:48.294Z,46.53
2019-02-23T11:40:19.702Z,46.53
2019-02-23T11:42:51.048Z,47.38
2019-02-23T11:45:22.454Z,46.74
2019-02-23T11:47:54.260Z,48.26
2019-02-23T11:50:25.620Z,46.96
2019-02-23T11:52:57.340Z,47.98
2019-02-23T11:55:28.698Z,49.75
2019-02-23T11:58:00.058Z,50.31
2019-02-23T12:00:31.627Z,49.48
2019-02-23T12:03:03.260Z,50.28
2019-02-23T12:05:34.954Z,50.20
2019-02-23T12:08:06.390Z,50.17
2019-02-23T12:10:37.960Z,50.95
2019-02-23T12:13:09.546Z,50.57
2019-02-23T12:15:41.192Z,50.49
2019-02-23T12:18:12.489Z,50.67
2019-02-23T12:20:44.170Z,50.88
2019-02-23T12:23:15.786Z,51.50
2019-02-23T12:25:47.040Z,50.63
2019-02-23T12:28:18.446Z,50.23
2019-02-23T12:30:50.231Z,50.18
2019-02-23T12:33:21.418Z,50.15
2019-02-23T12:35:52.928Z,51.26
2019-02-23T12:38:24.225Z,51.93
2019-02-23T12:40:55.940Z,50.47
2019-02-23T12:43:27.538Z,50.68
2019-02-23T12:45:59.131Z,50.64
2019-02-23T12:48:30.840Z,50.86
2019-02-23T12:51:02.360Z,52.17
2019-02-23T12:53:34.301Z,51.47
2019-02-23T12:56:05.701Z,51.88
2019-02-23T12:58:37.295Z,52.43
2019-02-23T13:01:08.563Z,51.96
2019-02-23T13:03:40.244Z,52.49
2019-02-23T13:06:11.562Z,51.85
2019-02-23T13:09:14.015Z,52.12
2019-02-23T13:11:48.877Z,51.76
2019-02-23T13:14:34.373Z,52.17
2019-02-23T13:17:38.610Z,51.56
2019-02-23T13:20:23.699Z,52.61
2019-02-23T13:23:18.473Z,52.79
2019-02-23T13:26:16.179Z,53.07
2019-02-23T13:29:28.151Z,51.26
2019-02-23T13:32:35.851Z,52.13
2019-02-23T13:35:37.424Z,51.67
2019-02-23T13:38:39.851Z,52.54
2019-02-23T13:41:43.412Z,52.45
2019-02-23T13:44:54.681Z,52.54
2019-02-23T13:48:10.630Z,52.82
2019-02-23T13:51:13.817Z,53.20
2019-02-23T13:54:38.541Z,52.89
2019-02-23T13:57:29.392Z,52.63
2019-02-23T14:00:22.605Z,50.71
2019-02-23T14:03:30.839Z,51.13
2019-02-23T14:06:45.986Z,51.95
2019-02-23T14:10:00.745Z,50.61
2019-02-23T14:13:09.911Z,51.46
2019-02-23T14:16:05.527Z,51.01
2019-02-23T14:19:23.813Z,51.34
2019-02-23T14:22:24.413Z,52.05
2019-02-23T14:25:21.276Z,52.19
2019-02-23T14:28:33.224Z,52.08
2019-02-23T14:31:50.206Z,51.34
2019-02-23T14:34:52.269Z,51.48
2019-02-23T14:37:37.582Z,52.90
2019-02-23T14:41:00.282Z,51.96
2019-02-23T14:43:58.619Z,52.00
2019-02-23T14:47:05.792Z,52.16
2019-02-23T14:50:13.317Z,52.36
2019-02-23T14:53:43.444Z,53.00
2019-02-23T14:56:53.519Z,53.36
2019-02-23T14:59:58.025Z,53.29
2019-02-23T15:03:20.555Z,52.48
2019-02-23T15:06:16.338Z,52.87
2019-02-23T15:09:37.103Z,52.71
2019-02-23T15:12:40.348Z,52.72
2019-02-23T15:15:56.139Z,52.64
2019-02-23T15:18:30.934Z,52.99
2019-02-23T15:21:19.755Z,54.04
2019-02-23T15:24:14.408Z,54.09
2019-02-23T15:27:00.251Z,53.74
2019-02-23T15:29:39.964Z,54.54
2019-02-23T15:32:43.864Z,55.35
2019-02-23T15:35:38.487Z,55.87
2019-02-23T15:38:34.029Z,55.75
2019-02-23T15:41:28.536Z,55.60
2019-02-23T15:44:18.008Z,55.93
2019-02-23T15:46:56.455Z,56.33
2019-02-23T15:49:29.353Z,56.46
2019-02-23T15:51:59.514Z,56.53
2019-02-23T15:54:29.552Z,55.58
2019-02-23T15:57:00.663Z,55.76
2019-02-23T15:59:32.107Z,55.69
2019-02-23T16:02:01.940Z,55.85
2019-02-23T16:04:31.669Z,56.04
2019-02-23T16:07:01.459Z,55.87
2019-02-23T16:09:31.308Z,55.62
2019-02-23T16:12:01.168Z,55.51
2019-02-23T16:14:30.979Z,55.78
2019-02-23T16:17:01.848Z,55.54
2019-02-23T16:19:31.601Z,56.31
2019-02-23T16:22:01.316Z,55.89
2019-02-23T16:24:31.107Z,56.39
2019-02-23T16:27:00.843Z,56.29
2019-02-23T16:29:30.653Z,56.17
2019-02-23T16:32:00.601Z,55.60
2019-02-23T16:34:30.495Z,55.36
2019-02-23T16:37:00.435Z,55.76
2019-02-23T16:39:30.156Z,55.71
2019-02-23T16:42:00.149Z,56.20
2019-02-23T16:44:31.590Z,55.57
2019-02-23T16:47:02.815Z,55.27
2019-02-23T16:49:32.607Z,55.21
2019-02-23T16:52:02.372Z,55.44
2019-02-23T16:54:32.084Z,55.70
2019-02-23T16:57:01.809Z,56.15
2019-02-23T16:59:31.798Z,55.74
2019-02-23T17:02:02.016Z,55.43
2019-02-23T17:04:31.721Z,55.87
2019-02-23T17:07:01.465Z,56.18
2019-02-23T17:09:31.251Z,55.98
2019-02-23T17:12:01.977Z,56.30
2019-02-23T17:14:31.755Z,55.77
2019-02-23T17:17:01.481Z,56.23
2019-02-23T17:19:31.265Z,55.83
2019-02-23T17:22:01.246Z,56.07
2019-02-23T17:24:31.129Z,56.78
2019-02-23T17:27:00.971Z,56.74
2019-02-23T17:29:30.736Z,57.07
2019-02-23T17:32:00.617Z,57.10
2019-02-23T17:34:30.353Z,57.16
2019-02-23T17:37:00.542Z,57.66
2019-02-23T17:39:30.601Z,58.21
2019-02-23T17:42:00.514Z,58.42
2019-02-23T17:44:30.491Z,58.71
2019-02-23T17:47:00.393Z,58.49
2019-02-23T17:49:31.706Z,58.64
2019-02-23T17:52:02.697Z,58.64
2019-02-23T17:54:33.939Z,59.41
2019-02-23T17:57:05.135Z,59.41
2019-02-23T17:59:36.387Z,59.82
2019-02-23T18:02:06.311Z,59.64
2019-02-23T18:04:36.262Z,59.91
2019-02-23T18:07:05.969Z,59.79
2019-02-23T18:09:35.762Z,59.77
2019-02-23T18:12:05.468Z,59.75
2019-02-23T18:14:35.209Z,60.03
2019-02-23T18:17:04.992Z,60.03
2019-02-23T18:19:34.706Z,60.20
2019-02-23T18:22:04.604Z,60.10
2019-02-23T18:24:34.316Z,60.63
2019-02-23T18:27:04.171Z,60.58
2019-02-23T18:29:33.893Z,60.03
2019-02-23T18:32:03.608Z,59.94
2019-02-23T18:34:33.320Z,60.10
2019-02-23T18:37:04.063Z,59.97
2019-02-23T18:39:33.907Z,60.37
2019-02-23T18:42:03.629Z,60.72
2019-02-23T18:44:33.369Z,60.66
2019-02-23T18:47:03.126Z,60.67
2019-02-23T18:49:32.888Z,60.81
2019-02-23T18:52:03.776Z,60.46
2019-02-23T18:54:33.510Z,60.61
2019-02-23T18:57:03.394Z,60.89
2019-02-23T18:59:33.087Z,60.71
2019-02-23T19:02:02.851Z,61.12
2019-02-23T19:04:32.570Z,61.04
2019-02-23T19:07:02.276Z,60.70
2019-02-23T19:09:32.052Z,60.72
2019-02-23T19:12:01.888Z,61.14
2019-02-23T19:14:33.165Z,61.12
2019-02-23T19:17:02.919Z,61.13
2019-02-23T19:19:32.698Z,60.91
2019-02-23T19:22:02.445Z,60.77
2019-02-23T19:24:32.401Z,61.13
2019-02-23T19:27:02.247Z,61.31
2019-02-23T19:29:32.052Z,61.12
2019-02-23T19:32:02.000Z,61.09
2019-02-23T19:34:31.737Z,60.98
2019-02-23T19:37:01.508Z,60.20
2019-02-23T19:39:31.292Z,59.55
2019-02-23T19:42:01.358Z,59.52
2019-02-23T19:44:33.258Z,59.32
2019-02-23T19:47:09.403Z,59.24
2019-02-23T19:49:39.361Z,59.39
2019-02-23T19:52:09.828Z,59.53
2019-02-23T19:54:39.839Z,60.07
2019-02-23T19:57:12.052Z,60.17
2019-02-23T19:59:43.989Z,59.39
2019-02-23T20:02:13.856Z,59.82
2019-02-23T20:04:43.809Z,59.24
2019-02-23T20:07:13.766Z,59.04
2019-02-23T20:09:43.586Z,59.17
2019-02-23T20:12:13.352Z,59.26
2019-02-23T20:14:43.110Z,59.31
2019-02-23T20:17:12.839Z,59.24
2019-02-23T20:19:42.572Z,59.23
2019-02-23T20:22:12.337Z,59.32
2019-02-23T20:24:42.161Z,59.00
2019-02-23T20:27:11.907Z,58.93
2019-02-23T20:29:42.736Z,58.86
2019-02-23T20:32:12.628Z,59.45
2019-02-23T20:34:42.442Z,59.12
2019-02-23T20:37:12.389Z,59.54
2019-02-23T20:39:42.176Z,59.93
2019-02-23T20:42:12.055Z,59.64
2019-02-23T20:44:41.781Z,59.93
2019-02-23T20:47:12.769Z,60.03
2019-02-23T20:49:42.581Z,60.18
2019-02-23T20:52:12.357Z,59.90
2019-02-23T20:54:43.818Z,59.97
2019-02-23T20:57:14.266Z,60.12
2019-02-23T20:59:44.194Z,60.66
2019-02-23T21:02:14.350Z,60.68
2019-02-23T21:04:44.453Z,60.74
2019-02-23T21:07:14.205Z,60.68
2019-02-23T21:09:44.332Z,61.20
2019-02-23T21:12:14.426Z,61.21
2019-02-23T21:14:44.468Z,61.74
2019-02-23T21:17:14.197Z,61.25
2019-02-23T21:19:44.090Z,61.05
2019-02-23T21:22:13.819Z,61.00
2019-02-23T21:24:43.652Z,60.64
2019-02-23T21:27:13.393Z,60.42
2019-02-23T21:29:43.157Z,60.89
2019-02-23T21:32:12.891Z,60.72
2019-02-23T21:34:42.669Z,60.58
2019-02-23T21:37:12.424Z,60.51
2019-02-23T21:39:42.157Z,60.87
2019-02-23T21:42:11.993Z,61.40
2019-02-23T21:44:41.702Z,61.48
2019-02-23T21:47:11.459Z,61.29
2019-02-23T21:49:41.201Z,61.48
2019-02-23T21:52:11.155Z,61.44
2019-02-23T21:54:40.972Z,61.34
2019-02-23T21:57:10.889Z,60.71
2019-02-23T21:59:40.986Z,60.81
2019-02-23T22:02:10.797Z,60.88
2019-02-23T22:04:40.664Z,60.68
2019-02-23T22:07:10.735Z,60.54
2019-02-23T22:09:40.688Z,59.90
2019-02-23T22:12:10.515Z,60.28
2019-02-23T22:14:40.271Z,60.60
2019-02-23T22:17:11.342Z,60.45
2019-02-23T22:19:41.081Z,60.33
2019-02-23T22:22:10.986Z,60.70
2019-02-23T22:24:40.713Z,60.31
2019-02-23T22:27:10.672Z,60.71
2019-02-23T22:29:40.780Z,61.09
2019-02-23T22:32:10.982Z,61.41
2019-02-23T22:34:40.713Z,61.50
2019-02-23T22:37:10.765Z,61.50
2019-02-23T22:39:40.854Z,61.50
2019-02-23T22:42:10.960Z,61.20
2019-02-23T22:44:40.689Z,60.75
2019-02-23T22:47:10.490Z,60.76
2019-02-23T22:49:40.218Z,60.80
2019-02-23T22:52:10.460Z,61.43
2019-02-23T22:54:40.337Z,61.43
2019-02-23T22:57:10.082Z,62.38
2019-02-23T22:59:39.820Z,62.08
2019-02-23T23:02:09.781Z,62.56
2019-02-23T23:04:40.117Z,62.53
2019-02-23T23:07:09.982Z,62.38
2019-02-23T23:09:39.957Z,62.25
2019-02-23T23:12:11.010Z,62.39
2019-02-23T23:14:40.880Z,62.00
2019-02-23T23:17:10.720Z,62.04
2019-02-23T23:19:40.453Z,61.87
2019-02-23T23:22:10.215Z,62.13
2019-02-23T23:24:40.350Z,61.88
2019-02-23T23:27:10.060Z,62.25
2019-02-23T23:29:40.845Z,62.08
2019-02-23T23:32:10.707Z,61.81
2019-02-23T23:34:40.553Z,61.82
2019-02-23T23:37:10.270Z,61.80
2019-02-23T23:39:40.218Z,61.92
2019-02-23T23:42:09.960Z,61.81
2019-02-23T23:44:39.746Z,61.64
2019-02-23T23:47:09.502Z,61.97
2019-02-23T23:49:39.315Z,61.97
2019-02-23T23:52:09.101Z,62.16
2019-02-23T23:54:39.225Z,62.07
2019-02-23T23:57:09.041Z,61.92
2019-02-23T23:59:38.769Z,61.69
